Terminal Aerodrome Forecast
Issued by NWS

Home | Current Version | Previous Version | Text Only | Print | Product List | Glossary On
Versions: 1 2 3 4 5 6 7 8 9 10 11 12 13 14 15 16 17 18 19 20 21 22 23 24
000
FTUS44 KMOB 270500
TAFBFM
TAF
KBFM 270538Z 2706/2806 27006KT P6SM SKC
     FM270700 32007KT P6SM SKC
     FM271500 35012G18KT P6SM SKC
     FM272300 36007KT P6SM SKC=

USA.gov is the U.S. government's official web portal to all federal, state and local government web resources and services.